Time;durP1;ratioP1;P1;durP2;ratioP2;P2;SDS_P1;SDS_P2;PMS_P1;PMS_P2;Temp;Humidity;BMP_temperature;BMP_pressure;BME280_temperature;BME280_humidity;BME280_pressure;Samples;Min_cycle;Max_cycle;Signal;HPM_P1;HPM_P2
2023/09/07 11:29:19;;;;;;;12.13;6.35;;;;;;;30.71;51.18;100588.06;5775735;23;20044;-96
2023/09/07 11:34:21;;;;;;;12.52;6.28;;;;;;;31.64;50.14;100586.38;5129632;23;20039;-96
2023/09/07 12:00:46;;;;;;;8.02;4.22;;;;;;;33.03;46.29;100559.50;5164831;23;20040;-96
2023/09/07 12:03:12;;;;;;;8.68;4.13;;;;;;;33.27;44.79;100562.16;4942342;29;20040;-96
2023/09/07 12:05:39;;;;;;;5.28;3.13;;;;;;;33.84;43.92;100557.69;4941447;29;20064;-96
2023/09/07 12:08:05;;;;;;;6.88;3.78;;;;;;;34.64;41.83;100563.13;4942450;29;20075;-96
2023/09/07 12:10:31;;;;;;;6.60;3.45;;;;;;;34.09;42.63;100554.72;4941050;29;20016;-96
2023/09/07 12:13:05;;;;;;;10.18;3.42;;;;;;;34.43;42.12;100561.94;5213858;23;20055;-96
2023/09/07 12:15:30;;;;;;;13.13;3.80;;;;;;;34.33;42.74;100554.56;4942152;29;20040;-96
2023/09/07 12:20:31;;;;;;;9.07;2.67;;;;;;;34.17;40.67;100560.72;5617760;23;20080;-96
2023/09/07 12:22:57;;;;;;;10.82;2.67;;;;;;;34.24;40.30;100561.38;5045524;23;20051;-96
2023/09/07 12:27:57;;;;;;;4.22;2.70;;;;;;;34.18;40.99;100557.78;5727919;23;20050;-96
2023/09/07 12:35:32;;;;;;;3.58;2.80;;;;;;;34.45;40.56;100563.31;4930802;29;20039;-96
2023/09/07 14:05:54;;;;;;;5.03;2.38;;;;;;;32.02;44.48;100502.53;5057230;23;20052;-95
2023/09/07 14:08:23;;;;;;;6.22;3.00;;;;;;;32.15;44.09;100497.81;4962063;29;20043;-96
2023/09/07 14:10:49;;;;;;;5.95;2.20;;;;;;;32.59;43.58;100497.53;4962614;28;20011;-96
2023/09/07 14:46:56;;;;;;;5.47;2.42;;;;;;;32.12;45.86;100486.78;5369069;23;20075;-96
2023/09/07 14:49:22;;;;;;;4.15;2.38;;;;;;;31.91;46.58;100480.88;4962671;29;20039;-96
2023/09/07 14:51:47;;;;;;;6.55;2.80;;;;;;;31.64;46.79;100485.78;4955183;29;20068;-96
2023/09/07 14:54:13;;;;;;;3.88;2.42;;;;;;;31.35;46.60;100487.38;4942483;29;20091;-96
2023/09/07 14:56:39;;;;;;;4.85;2.70;;;;;;;31.47;46.23;100496.28;4942535;29;20008;-96
2023/09/07 14:59:05;;;;;;;5.28;3.17;;;;;;;31.47;46.26;100495.47;4942748;29;20044;-96
2023/09/07 15:22:33;;;;;;;15.13;4.47;;;;;;;31.61;47.21;100482.78;5962044;23;20011;-96
2023/09/07 17:03:25;;;;;;;4.78;2.90;;;;;;;29.51;69.85;100454.88;4938061;29;20052;-96
2023/09/07 17:05:51;;;;;;;3.17;2.28;;;;;;;29.65;69.25;100448.44;4939194;29;20016;-96
2023/09/07 17:08:17;;;;;;;4.35;2.60;;;;;;;29.68;67.81;100437.41;4940336;29;20024;-96
2023/09/07 17:10:43;;;;;;;6.30;3.45;;;;;;;29.51;70.83;100449.56;4941147;29;20019;-97
2023/09/07 17:13:09;;;;;;;4.35;2.70;;;;;;;29.26;71.40;100447.59;4940666;29;20036;-96
2023/09/07 17:15:34;;;;;;;4.47;2.58;;;;;;;29.21;70.31;100445.59;4941064;29;20016;-96
2023/09/07 17:18:00;;;;;;;5.05;2.67;;;;;;;29.18;71.36;100453.16;4939916;29;20019;-96
2023/09/07 17:20:25;;;;;;;6.03;2.47;;;;;;;28.89;73.46;100468.53;4940519;29;20032;-96
2023/09/07 17:22:51;;;;;;;5.82;2.67;;;;;;;28.92;73.77;100467.31;4940182;29;20036;-96
2023/09/07 17:25:17;;;;;;;2.40;2.20;;;;;;;28.95;74.02;100470.38;4940251;29;20035;-96
2023/09/07 17:27:44;;;;;;;4.32;2.47;;;;;;;28.84;67.70;100473.66;4940424;29;20040;-96
2023/09/07 17:30:11;;;;;;;6.55;2.63;;;;;;;28.72;67.60;100472.66;4939646;29;20048;-96
2023/09/07 17:32:45;;;;;;;4.60;2.55;;;;;;;28.73;65.83;100469.00;4940298;29;20024;-96
2023/09/07 17:35:24;;;;;;;5.32;2.85;;;;;;;28.66;67.53;100461.03;4938955;29;20029;-96
2023/09/07 17:37:54;;;;;;;6.40;3.13;;;;;;;28.64;67.80;100465.72;4937906;29;20032;-96
2023/09/07 17:40:25;;;;;;;3.03;2.30;;;;;;;28.62;67.71;100472.28;4939917;29;20044;-96
2023/09/07 17:42:58;;;;;;;5.40;2.60;;;;;;;28.48;70.62;100469.63;4942973;29;20044;-96
2023/09/07 17:45:27;;;;;;;5.80;2.60;;;;;;;28.38;72.49;100466.53;4927858;29;20047;-96
2023/09/07 17:48:08;;;;;;;6.25;2.97;;;;;;;28.26;73.53;100468.16;4943433;29;20036;-96
2023/09/07 17:50:39;;;;;;;2.92;2.40;;;;;;;28.16;75.02;100464.06;4929229;29;20084;-96
2023/09/07 17:53:08;;;;;;;3.90;2.70;;;;;;;28.16;75.98;100477.34;4956207;29;20040;-96
2023/09/07 17:56:10;;;;;;;4.25;2.53;;;;;;;28.32;74.55;100478.78;4943197;29;20051;-96
